Latest Coastal Weather Observations for Wynyard

IDT60701

Issued at 7:32 pm EST Wednesday 6 May 2026 (issued every 10 minutes, with the page automatically refreshed every 10 minutes)

About coastal observations | Map of coastal stations | Coastal observations for TAS | Marine services | Other Formats
Station Details ID: 091107 Name: WYNYARD AIRPORT Lat: -41.00 Lon: 145.73 Height: 12.0 m
Data from the previous 72 hours. | See also: Recent months at Wynyard
Date/Time
EST
Wind Sea
Height
m
Swell Vis
km
Cloud Weather Temp
°C
Press
MSL
hPa
Rain since
9am
mm
Dir  Spd
kts
Gust
kts
Height
m
Period
s
Dir
06/07:30pm WSW 9 11 - - - - 10 Mostly clear - 9.0 1009.3 1.8
06/07:00pm W 9 11 - - - - 10 Partly cloudy - 9.6 1009.7 1.8
06/06:30pm W 12 14 - - - - 10 Mostly clear - 9.8 1009.3 1.6
06/06:00pm W 15 22 - - - - 10 Cloudy Showers 10.2 1008.9 1.4
06/05:30pm WSW 13 17 - - - - 10 Cloudy - 10.8 1008.4 1.4
06/05:00pm WSW 14 19 - - - - 10 Partly cloudy - 11.4 1007.9 1.4
06/04:30pm W 18 27 - - - - 10 Mostly clear - 12.1 1007.9 1.4
06/04:25pm W 16 26 - - - - 10 Partly cloudy - 12.2 1007.9 1.4
06/04:00pm WNW 14 19 - - - - 10 Mostly clear - 13.2 1007.8 1.4
06/03:48pm WNW 17 27 - - - - 4 Mostly clear - 13.2 1007.9 1.4
06/03:39pm NW 18 25 - - - - 5 Mostly clear - 13.7 1007.9 1.0
06/03:30pm NW 15 21 - - - - 10 Partly cloudy - 14.5 1007.9 0.8
06/03:00pm WNW 21 27 - - - - 10 Mostly clear - 15.7 1008.4 0.8
06/02:48pm NW 15 26 - - - - 10 Mostly clear - 16.4 1008.6 0.8
06/02:30pm WNW 15 20 - - - - 10 Mostly clear - 16.5 1009.0 0.8
06/02:08pm WNW 16 26 - - - - 10 Mostly clear - 16.1 1009.3 0.8
06/02:00pm WNW 16 21 - - - - 10 Mostly clear - 16.8 1009.5 0.8
06/01:46pm WNW 18 28 - - - - 10 Mostly clear - 16.7 1009.7 0.8
06/01:30pm WNW 20 27 - - - - 10 Mostly clear - 15.9 1010.0 0.8
06/01:10pm WNW 15 26 - - - - 10 Mostly clear - 15.8 1010.3 0.8
06/01:00pm NW 13 19 - - - - 10 Mostly clear - 15.2 1010.6 0.8
06/12:30pm W 11 16 - - - - 10 Partly cloudy - 15.1 1011.3 0.8
06/12:26pm W 12 16 - - - - 10 Mostly clear - 14.9 1011.5 0.8
06/12:08pm W 15 23 - - - - 5 Mostly clear - 14.5 1011.9 0.8
06/12:00pm WNW 14 18 - - - - 10 Cloudy - 15.8 1011.8 0.2
06/11:30am WNW 13 21 - - - - 10 Partly cloudy - 16.1 1012.3 0.2
06/11:10am WNW 14 21 - - - - 10 Mostly clear - 15.8 1012.7 0.2
06/11:04am WNW 12 18 - - - - 10 Partly cloudy - 15.4 1012.9 0.2
06/11:00am WNW 11 16 - - - - 10 Mostly clear - 15.1 1012.9 0.2
06/10:44am WNW 13 16 - - - - 5 Mostly clear - 14.3 1013.2 0.2
06/10:30am WNW 12 18 - - - - 10 Mostly clear - 14.7 1013.2 0.2
06/10:01am WNW 9 13 - - - - 10 Partly cloudy - 14.2 1013.7 0.2
06/10:00am WNW 9 13 - - - - 10 Partly cloudy - 14.0 1013.7 0.2
06/09:53am WNW 11 15 - - - - 10 Partly cloudy - 14.3 1013.9 0.2
06/09:39am WNW 12 15 - - - - 5 Mostly clear - 13.9 1014.1 0.2
06/09:30am WNW 11 15 - - - - 10 Mostly clear - 14.6 1014.1 0.0
06/09:00am WNW 12 18 - - - - 10 Mostly cloudy Recent precip. 14.0 1014.5 1.0
06/08:51am WNW 13 17 - - - - 10 Mostly clear - 13.6 1014.6 1.0
06/08:34am W 8 12 - - - - 5 Mostly clear - 13.5 1014.8 1.0
06/08:30am WNW 7 11 - - - - 10 Mostly clear - 13.7 1014.8 1.0
06/08:00am NW 6 9 - - - - 10 Partly cloudy - 13.1 1014.9 1.0
06/07:30am WNW 8 10 - - - - 10 Mostly clear - 12.5 1015.1 1.0
06/07:18am WNW 10 13 - - - - 10 Mostly clear - 12.8 1015.0 1.0
06/07:11am W 10 13 - - - - 10 Mostly clear - 12.8 1015.1 1.0
06/07:01am W 10 13 - - - - 3 Mostly clear - 12.8 1015.2 1.0
06/07:00am W 10 13 - - - - 3 Mostly clear - 12.9 1015.2 1.0
06/06:30am W 10 13 - - - - 4 Mostly clear - 13.2 1015.2 0.2
06/06:29am W 10 13 - - - - 5 Mostly clear - 13.2 1015.2 0.2
06/06:00am WNW 9 12 - - - - 10 Mostly cloudy Recent precip. 13.2 1015.3 0.2
06/05:30am WNW 10 17 - - - - 10 Mostly clear - 13.0 1015.5 0.2
06/05:00am WNW 6 8 - - - - 10 Mostly clear - 12.6 1015.6 0.0
06/04:32am WNW 9 13 - - - - 10 Mostly clear - 12.7 1015.8 0.0
06/04:30am WNW 9 13 - - - - 10 Mostly clear - 12.7 1015.8 0.0
06/04:16am WNW 9 11 - - - - 10 Mostly clear - 13.1 1015.9 0.0
06/04:00am NW 8 11 - - - - 10 Partly cloudy - 13.1 1015.9 0.0
06/03:30am WNW 8 12 - - - - 10 Partly cloudy - 12.7 1016.0 0.0
06/03:00am WNW 9 10 - - - - 10 Cloudy - 12.9 1016.4 0.0
06/02:58am WNW 9 10 - - - - 10 Mostly clear - 12.9 1016.4 0.0
06/02:30am WNW 7 10 - - - - 10 Cloudy - 13.2 1016.8 0.0
06/02:23am WNW 6 9 - - - - 10 Cloudy - 13.2 1016.9 0.0
06/02:00am WNW 7 10 - - - - 10 Cloudy - 12.9 1017.0 0.0
06/01:55am WNW 7 10 - - - - 10 Cloudy - 13.1 1017.0 0.0
06/01:35am WNW 7 9 - - - - 10 Partly cloudy - 13.0 1017.2 0.0
06/01:30am WNW 8 13 - - - - 10 Partly cloudy - 13.0 1017.2 0.0
06/01:18am WNW 7 12 - - - - 5 Partly cloudy - 13.0 1017.3 0.0
06/01:17am WNW 7 12 - - - - 6 Partly cloudy - 13.0 1017.3 0.0
06/01:03am WNW 7 9 - - - - 10 Mostly clear - 12.9 1017.4 0.0
06/01:00am WNW 8 11 - - - - 10 Mostly clear - 12.9 1017.4 0.0
06/12:30am WNW 8 11 - - - - 10 Partly cloudy - 12.8 1017.5 0.0
06/12:15am W 8 13 - - - - 10 Partly cloudy - 12.5 1017.6 0.0
06/12:00am W 6 7 - - - - 10 Cloudy - 11.3 1017.6 0.0
 
Date/Time
EST
Wind Sea
Height
m
Swell Vis
km
Cloud Weather Temp
°C
Press
MSL
hPa
Rain since
9am
mm
Dir  Spd
kts
Gust
kts
Height
m
Period
s
Dir
05/11:30pm WNW 7 11 - - - - 10 Mostly clear - 12.7 1017.8 0.0
05/11:00pm WNW 6 7 - - - - 10 Partly cloudy - 12.7 1018.1 0.0
05/10:30pm WNW 7 9 - - - - 10 Cloudy - 12.5 1018.3 0.0
05/10:00pm W 5 6 - - - - 10 Cloudy - 11.7 1018.5 0.0
05/09:30pm WSW 5 6 - - - - 10 Cloudy - 11.5 1018.7 0.0
05/09:00pm WSW 2 5 - - - - 10 Cloudy - 11.2 1018.7 0.0
05/08:30pm WSW 5 5 - - - - 10 Cloudy - 11.1 1018.7 0.0
05/08:00pm WNW 5 7 - - - - 10 Cloudy - 11.3 1018.8 0.0
05/07:30pm NW 6 8 - - - - 10 Partly cloudy - 11.0 1018.8 0.0
05/07:00pm WNW 6 7 - - - - 10 Mostly clear - 11.4 1018.4 0.0
05/06:30pm W 7 10 - - - - 10 Partly cloudy - 11.5 1018.1 0.0
05/06:00pm W 7 9 - - - - 10 Partly cloudy - 11.9 1017.7 0.0
05/05:30pm W 10 13 - - - - 10 Cloudy - 13.1 1017.3 0.0
05/05:00pm W 8 10 - - - - 10 Partly cloudy - 13.0 1016.9 0.0
05/04:30pm W 13 17 - - - - 10 - - 13.6 1016.7 0.0
05/04:00pm W 14 18 - - - - 10 Mostly clear - 14.4 1016.2 0.0
05/03:30pm WSW 14 19 - - - - 10 Partly cloudy - 14.7 1016.0 0.0
05/03:00pm WSW 12 16 - - - - 10 Partly cloudy - 14.7 1015.8 0.0
05/02:30pm WSW 17 24 - - - - 10 Partly cloudy - 15.2 1015.3 0.0
05/02:00pm WSW 16 24 - - - - 10 Partly cloudy - 15.8 1015.2 0.0
05/01:30pm WSW 17 26 - - - - 10 Partly cloudy - 15.7 1015.0 0.0
05/01:00pm W 15 23 - - - - 10 Partly cloudy - 15.0 1014.7 0.0
05/12:30pm W 15 23 - - - - 10 Partly cloudy - 16.2 1014.6 0.0
05/12:00pm WSW 15 23 - - - - 10 Partly cloudy - 16.4 1014.5 0.0
05/11:30am WSW 15 23 - - - - 10 Partly cloudy - 16.1 1014.4 0.0
05/11:00am WSW 11 17 - - - - 10 Cloudy - 16.0 1014.3 0.0
05/10:30am WSW 13 18 - - - - 10 Partly cloudy - 15.1 1013.8 0.0
05/10:00am WSW 12 17 - - - - 10 Mostly clear - 15.0 1013.6 0.0
05/09:30am WSW 9 13 - - - - 10 - - 14.4 1013.4 0.0
05/09:00am WSW 8 11 - - - - 10 - - 13.7 1013.0 0.4
05/08:30am WSW 8 12 - - - - 10 - - 12.9 1012.6 0.4
05/08:00am WNW 6 10 - - - - 10 Mostly clear - 12.4 1012.3 0.4
05/07:30am NNW 5 7 - - - - 10 Mostly clear - 11.1 1011.8 0.4
05/07:00am NNW 5 6 - - - - 10 Mostly clear - 10.8 1011.1 0.4
05/06:30am NW 5 6 - - - - 10 - - 10.7 1010.5 0.4
05/06:00am W 5 7 - - - - 10 - - 10.2 1009.9 0.4
05/05:30am WNW 9 10 - - - - 10 - - 10.9 1009.5 0.4
05/05:00am W 9 10 - - - - 10 Partly cloudy - 10.8 1009.0 0.4
05/04:30am WSW 10 12 - - - - 10 Partly cloudy - 11.1 1008.5 0.4
05/04:00am W 6 7 - - - - 10 - - 10.2 1007.9 0.4
05/03:30am W 5 7 - - - - 10 - - 10.6 1007.3 0.4
05/03:00am W 8 11 - - - - 10 - - 11.4 1007.0 0.4
05/02:30am SSW 6 9 - - - - 10 - - 12.2 1006.4 0.4
05/02:00am SSW 6 7 - - - - 10 Mostly clear - 12.2 1006.4 0.4
05/01:30am S 5 6 - - - - 10 Mostly clear - 13.1 1006.4 0.4
05/01:00am S 6 7 - - - - 10 Partly cloudy - 13.3 1006.4 0.4
05/12:30am SSW 6 7 - - - - 10 Mostly clear - 13.4 1006.2 0.4
05/12:22am WSW 7 9 - - - - 10 Partly cloudy - 13.3 1006.2 0.4
05/12:05am W 7 8 - - - - 10 Partly cloudy - 13.9 1006.3 0.2
05/12:00am SSW 6 8 - - - - 10 Cloudy - 13.7 1006.3 0.2
 
Date/Time
EST
Wind Sea
Height
m
Swell Vis
km
Cloud Weather Temp
°C
Press
MSL
hPa
Rain since
9am
mm
Dir  Spd
kts
Gust
kts
Height
m
Period
s
Dir
04/11:30pm SSW 8 9 - - - - 10 Partly cloudy - 13.6 1006.2 0.2
04/11:00pm WNW 5 7 - - - - 10 Partly cloudy - 14.4 1006.4 0.2
04/10:30pm NNW 11 14 - - - - 10 Partly cloudy - 14.8 1006.7 0.2
04/10:00pm N 7 10 - - - - 10 Partly cloudy - 15.2 1006.8 0.2
04/09:30pm N 9 13 - - - - 10 Mostly clear - 15.1 1006.9 0.2
04/09:00pm N 11 18 - - - - 10 Cloudy Showers 14.8 1006.9 0.2
04/08:30pm N 12 18 - - - - 10 Mostly clear - 15.2 1006.6 0.0
04/08:00pm N 12 19 - - - - 10 Mostly clear - 15.7 1006.6 0.0
04/07:30pm N 10 16 - - - - 10 Partly cloudy - 16.4 1006.8 0.0
04/07:00pm N 11 17 - - - - 10 Partly cloudy - 16.5 1007.0 0.0
04/06:30pm N 12 17 - - - - 10 Partly cloudy - 16.4 1006.9 0.0
04/06:00pm N 11 18 - - - - 10 Cloudy - 16.2 1006.9 0.0
04/05:30pm N 14 21 - - - - 10 Partly cloudy - 16.2 1006.9 0.0
04/05:00pm N 12 19 - - - - 10 Mostly clear - 15.9 1006.9 0.0
04/04:30pm NNW 12 18 - - - - 10 Mostly clear - 15.9 1006.9 0.0
04/04:00pm NNW 14 22 - - - - 10 Partly cloudy - 15.5 1006.9 0.0
04/03:30pm N 13 21 - - - - 10 Partly cloudy - 16.4 1007.0 0.0
04/03:00pm NNW 14 20 - - - - 10 Cloudy - 16.4 1007.0 0.0
04/02:30pm N 13 18 - - - - 10 Partly cloudy - 16.2 1007.1 0.0
04/02:00pm N 13 19 - - - - 10 Partly cloudy - 16.8 1007.3 0.0
04/01:30pm N 15 23 - - - - 10 Partly cloudy - 17.3 1007.6 0.0
04/01:00pm N 13 19 - - - - 10 Partly cloudy - 17.1 1007.8 0.0
04/12:30pm N 12 18 - - - - 10 Partly cloudy - 16.7 1008.2 0.0
04/12:00pm N 11 16 - - - - 10 Mostly cloudy - 16.8 1008.7 0.0
04/11:30am N 11 17 - - - - 10 Mostly clear - 17.3 1008.9 0.0
04/11:00am N 13 20 - - - - 10 Mostly clear - 16.9 1009.2 0.0
04/10:30am N 11 16 - - - - 10 Partly cloudy - 16.9 1009.4 0.0
04/10:00am N 10 15 - - - - 10 Mostly clear - 16.4 1009.4 0.0
04/09:30am N 9 14 - - - - 10 Cloudy - 15.8 1009.5 0.0
04/09:00am NW 6 14 - - - - 10 Cloudy - 15.3 1009.5 14.0
04/08:30am WSW 1 4 - - - - 10 Cloudy - 12.6 1009.5 14.0
04/08:00am WSW 3 5 - - - - 10 Partly cloudy - 10.9 1009.4 14.0
04/07:44am SSW 2 5 - - - - 10 Mostly clear - 9.8 1009.4 14.0
04/07:30am SW 3 4 - - - - 2 Partly cloudy - 9.4 1009.3 14.0
04/07:16am W 4 5 - - - - 4 Partly cloudy - 9.1 1009.3 14.0
04/07:00am W 4 5 - - - - 10 Partly cloudy - 9.9 1009.2 14.0
04/06:30am WSW 3 4 - - - - 10 Mostly clear - 10.4 1009.1 14.0
04/06:00am W 3 4 - - - - 10 Cloudy - 10.3 1009.4 14.0
04/05:30am W 4 5 - - - - 10 Mostly clear - 10.3 1009.3 14.0
04/05:00am WNW 4 6 - - - - 10 Mostly clear - 9.8 1009.1 14.0
04/04:30am WNW 5 6 - - - - 10 Mostly clear - 10.6 1009.3 13.6
04/04:00am W 5 6 - - - - 10 Mostly clear - 10.6 1009.4 13.6
04/03:34am WSW 5 8 - - - - 10 Partly cloudy - 10.4 1009.6 13.6
04/03:30am SW 5 8 - - - - 10 Partly cloudy - 10.6 1009.6 13.6
04/03:10am WNW 5 11 - - - - 10 Partly cloudy - 11.0 1009.8 13.6
04/03:00am W 5 9 - - - - 10 Cloudy - 10.9 1010.0 13.6
04/02:30am W 4 5 - - - - 10 Partly cloudy - 10.4 1010.0 13.6
04/02:00am SSW 6 7 - - - - 10 Partly cloudy - 10.5 1010.2 13.6
04/01:54am SW 4 6 - - - - 10 Partly cloudy - 10.1 1010.4 13.6
04/01:30am W 3 4 - - - - 9 Partly cloudy - 9.8 1010.5 13.6
04/01:29am W 3 4 - - - - 8 Partly cloudy - 9.8 1010.5 13.6
04/01:26am W 4 4 - - - - 9 Partly cloudy - 9.7 1010.5 13.6
04/01:13am W 4 5 - - - - 5 Partly cloudy - 9.6 1010.4 13.6
04/01:00am WSW 4 5 - - - - 10 Mostly clear - 9.6 1010.3 13.6
04/12:56am WSW 5 5 - - - - 10 Mostly clear - 9.3 1010.4 13.6
04/12:31am WNW 3 5 - - - - 5 Partly cloudy - 9.4 1010.2 13.6
04/12:30am WNW 3 5 - - - - 6 Mostly clear - 9.4 1010.2 13.6
04/12:25am WNW 1 4 - - - - 10 - - 10.4 1010.4 13.6
04/12:08am CALM 0 0 - - - - 1 Mostly clear - 10.2 1010.6 13.6
04/12:00am CALM 0 0 - - - - 0.5 Cloudy - 10.1 1010.0 13.6
 
Date/Time
EST
Wind Sea
Height
m
Swell Vis
km
Cloud Weather Temp
°C
Press
MSL
hPa
Rain since
9am
mm
Dir  Spd
kts
Gust
kts
Height
m
Period
s
Dir
03/11:47pm SSW 3 4 - - - - 0.9 Partly cloudy - 9.9 1010.2 13.6
03/11:39pm W 3 4 - - - - 5 - - 9.9 1010.3 13.6
03/11:30pm W 4 5 - - - - 10 - - 10.7 1010.8 13.6
03/11:29pm W 4 5 - - - - 10 - - 10.7 1010.8 13.6
03/11:04pm W 6 7 - - - - 5 - - 10.6 1010.6 13.6
03/11:00pm W 6 7 - - - - 10 - - 10.6 1010.6 13.6
03/10:51pm WNW 7 8 - - - - 9 - - 11.0 1010.9 13.6
03/10:31pm WNW 4 6 - - - - 1 Mostly clear - 9.9 1011.0 13.6
03/10:30pm WNW 5 6 - - - - 0.9 Mostly clear - 9.8 1011.0 13.6
03/10:27pm WNW 5 6 - - - - 0.9 Mostly clear - 9.8 1010.9 13.6
03/10:15pm W 5 6 - - - - 1 Mostly clear - 10.9 1011.0 13.6
03/10:00pm SW 4 5 - - - - 0.5 - - 10.9 1011.0 13.6
03/09:55pm WSW 4 5 - - - - 0.9 - - 10.7 1010.9 13.6
03/09:41pm WNW 4 5 - - - - 1 - - 10.6 1011.1 13.6
03/09:30pm W 5 6 - - - - 0.5 - - 10.4 1011.0 13.6
03/09:07pm WNW 5 6 - - - - 0.9 Mostly clear - 10.9 1011.5 13.6
03/09:04pm WNW 5 6 - - - - 1 Mostly clear - 11.0 1011.3 13.6
03/09:00pm WNW 5 5 - - - - 0.4 Mostly clear - 11.3 1011.0 13.6
03/08:43pm W 5 7 - - - - 0.8 - - 10.6 1010.7 13.6
03/08:30pm WNW 5 7 - - - - 5 - - 11.8 1010.7 13.6
03/08:26pm W 6 7 - - - - 1 - - 11.4 1010.6 13.6
03/08:00pm WNW 5 5 - - - - 0.2 - - 10.8 1010.1 13.6
03/07:53pm WNW 4 5 - - - - 0.9 - - 11.7 1010.0 13.6
03/07:51pm WNW 4 4 - - - - 2 - - 11.9 1010.0 13.6

Other formats

Comma delimited format used in spreadsheet applications
http://www.bom.gov.au/fwo/IDT60701/IDT60701.95957.axf

JavaScript Object Notation format (JSON) in row-major order
http://www.bom.gov.au/fwo/IDT60701/IDT60701.95957.json

Data quality

Most of these data are generated automatically and are frequently updated. Quality checks on data are not normally performed. It is possible for incorrect values to appear. Refer to information at About Latest Weather Observations and please check the disclaimer before using these data.